49OH weather

Sky Ranch Airport
West Jefferson, Ohio, United States

Public forecast

Using degrees Fahrenheit for public forecast. Weather courtesy of forecast.io.

Closest aviation weather report (METAR) to Sky Ranch Airport

Closest report is Bolton Field, 5.0 nm (9.3 km) ESE. Retrieved 2020/07/07 02:00 UTC (6 minutes ago):

KTZR 070200Z AUTO 22003KT 10SM SCT120 26/21 A3002 RMK AO2 T02610205

Closest aviation forecast (TAF) to Sky Ranch Airport

Closest forecast is Rickenbacker International Airport, 16.0 nm (29.6 km) ESE. Retrieved 2020-07-07 00:28 UTC (2 hours ago):

TAF KLCK 062322Z 0700/0724 VRB03KT P6SM FEW080 SCT120 FM071500 24006KT P6SM SCT050 FM071700 25007KT P6SM VCTS BKN050CB